Home > Products > Valid Products > TAF

000
FTUS43 KUNR 012300
TAFGCC
TAF
KGCC 012320Z 0200/0224 25007KT P6SM SKC
     FM020300 20008KT P6SM SKC=



000
FTUS43 KUNR 012300
TAFRAP
TAF
KRAP 012320Z 0200/0224 29009KT P6SM SCT070
     FM020300 VRB04KT P6SM SKC
     FM021600 18010KT P6SM SKC=



000
FTUS43 KUNR 011900 AAA
TAFRAP
TAF AMD
KRAP 011933Z 0120/0218 34014KT P6SM -SHRA BKN040
      TEMPO 0120/0121 TSRA BKN035CB
     FM020000 35009KT P6SM SCT050 SCT080
     FM020300 VRB04KT P6SM SKC=



000
FTUS43 KUNR 011700
TAFGCC
TAF
KGCC 011720Z 0118/0218 32008KT P6SM -SHRA BKN040
     FM012200 30007KT P6SM SCT050 SCT080
     FM020300 18008KT P6SM SKC=



000
FTUS43 KUNR 011700
TAFRAP
TAF
KRAP 011720Z 0118/0218 34011KT P6SM SCT050 SCT100
     FM011900 34014KT P6SM -SHRA BKN040
     FM020000 35009KT P6SM SCT050 SCT080
     FM020300 VRB04KT P6SM SKC=



000
FTUS43 KUNR 011100
TAFGCC
TAF
KGCC 011120Z 0112/0212 VRB05KT P6SM BKN150
     FM011600 31009KT P6SM -SHRA BKN050 OVC100
     FM012200 22008KT P6SM SKC=



000
FTUS43 KUNR 011100
TAFRAP
TAF
KRAP 011120Z 0112/0212 30008KT P6SM SCT050 BKN150
     FM011900 34015KT P6SM -SHRA BKN050 OVC150
     FM020000 35007KT P6SM SKC=



000
FTUS43 KUNR 010500
TAFRAP
TAF
KRAP 010520Z 0106/0206 34010KT P6SM SCT150
     FM011800 34015KT P6SM -SHRA BKN060 OVC150
     FM020000 35008KT P6SM SKC=



000
FTUS43 KUNR 010500
TAFGCC
TAF
KGCC 010520Z 0106/0206 32008KT P6SM SCT150
     FM011400 32005KT P6SM -SHRA SCT050 OVC100
     FM012100 33011KT P6SM SKC=



000
FTUS43 KUNR 312300
TAFGCC
TAF
KGCC 312320Z 0100/0124 35006KT P6SM SCT050 BKN080
     FM010300 25005KT P6SM SCT100
     FM011600 30015KT P6SM SCT040 OVC080=



000
FTUS43 KUNR 312300
TAFRAP
TAF
KRAP 312320Z 0100/0124 32006KT P6SM SCT070 OVC100
     FM012000 32015KT P6SM OVC050=



000
FTUS43 KUNR 312100 AAB
TAFRAP
TAF AMD
KRAP 312112Z 3121/0118 VRB05KT P6SM -SHRA BKN040 OVC080
      TEMPO 3121/3124 VRB30KT 1SM +TSRA OVC030CB
     FM010200 33017KT P6SM SCT080 BKN150=



000
FTUS43 KUNR 311900 AAA
TAFRAP
TAF AMD
KRAP 311919Z 3119/0118 VRB05KT P6SM BKN100
     FM312000 35011KT P6SM -SHRA BKN040 OVC080
      TEMPO 3120/3124 5SM TSRA OVC040CB
     FM010200 33017KT P6SM SCT080 BKN150=



000
FTUS43 KUNR 311700
TAFRAP
TAF
KRAP 311720Z 3118/0118 VRB05KT P6SM BKN100
     FM312000 35011KT P6SM -SHRA BKN040 OVC080
      TEMPO 3122/0102 5SM TSRA OVC040CB
     FM010200 33017KT P6SM SCT080 BKN150=



000
FTUS43 KUNR 311700
TAFGCC
TAF
KGCC 311720Z 3118/0118 VRB05KT P6SM -SHRA BKN040 OVC070
      TEMPO 3120/3124 5SM TSRA BR OVC025CB
     FM010000 33012KT P6SM BKN030 OVC060
     FM010400 35008KT P6SM SCT120=



000
FTUS43 KUNR 311400 AAA
TAFGCC
TAF AMD
KGCC 311440Z 3115/0112 VRB05KT P6SM -SHRA BKN040 OVC070
      TEMPO 3115/3119 2SM SHRA BR
     FM311900 VRB05KT P6SM -SHRA BKN040 OVC070
      TEMPO 3119/3123 5SM TSRA OVC040CB
     FM312300 33012KT P6SM BKN030 OVC060
     FM010200 35008KT P6SM SCT120=



000
FTUS43 KUNR 311100
TAFRAP
TAF
KRAP 311120Z 3112/0112 VRB05KT P6SM BKN100
     FM311800 35011KT P6SM -SHRA BKN040 OVC080
      TEMPO 3119/3123 5SM TSRA OVC040CB
     FM010200 33017KT P6SM SCT080 BKN150=



000
FTUS43 KUNR 311100
TAFGCC
TAF
KGCC 311120Z 3112/0112 28008KT P6SM OVC100
     FM311500 VRB05KT P6SM -SHRA BKN040 OVC070
      TEMPO 3117/3120 5SM TSRA OVC040CB
     FM312200 33012KT P6SM BKN030 OVC060
     FM010200 35008KT P6SM SCT120=



000
FTUS43 KUNR 310500
TAFGCC
TAF
KGCC 310520Z 3106/0106 28008KT P6SM SCT080 BKN250
     FM311300 33009KT P6SM OVC080
     FM311600 33012KT P6SM -TSRA SCT060CB OVC090
     FM010100 34005KT P6SM SCT250=



000
FTUS43 KUNR 310500
TAFRAP
TAF
KRAP 310520Z 3106/0106 35011KT P6SM SCT100 SCT250
     FM311400 33006KT P6SM BKN100
     FM311800 35011KT P6SM -TSRA BKN040CB OVC080
     FM010300 33009KT P6SM SCT080 BKN150=



000
FTUS43 KUNR 310200 AAA
TAFGCC
TAF AMD
KGCC 310226Z 3102/3124 32010G20KT P6SM BKN050 OVC100
     FM310500 25006KT P6SM SCT015 OVC050
     FM311300 33009KT P6SM OVC040
     FM311400 33012KT P6SM -TSRA OVC050CB=



000
FTUS43 KUNR 310100 AAA
TAFRAP
TAF AMD
KRAP 310123Z 3101/3124 34017G27KT P6SM SCT090 OVC150
     FM310400 33015G25KT P6SM BKN150 OVC250
     FM310900 32015KT P6SM BKN250
     FM311900 36011KT P6SM -TSRA OVC050CB=



000
FTUS43 KUNR 302300
TAFRAP
TAF
KRAP 302320Z 3100/3124 17015KT P6SM TSRA SCT090CB OVC250
     FM310200 34017G27KT P6SM VCTS BKN090CB OVC150
     FM310400 33015G25KT P6SM BKN150 OVC250
     FM310900 32015KT P6SM BKN250
     FM311900 36011KT P6SM -TSRA OVC050CB=



000
FTUS43 KUNR 302300
TAFGCC
TAF
KGCC 302320Z 3100/3124 34012G22KT P6SM TSRA BKN080CB OVC150
     FM310500 25006KT P6SM SCT015 OVC050
     FM311300 33009KT P6SM OVC040
     FM311400 33012KT P6SM -TSRA OVC050CB=



000
FTUS43 KUNR 301900 AAA
TAFGCC
TAF AMD
KGCC 301939Z 3020/3118 35015KT P6SM SCT080 BKN200
      TEMPO 3022/3102 -TSRA BKN080CB=



000
FTUS43 KUNR 301700
TAFRAP
TAF
KRAP 301720Z 3018/3118 16015KT P6SM SKC
     FM302300 18018KT P6SM SCT060 BKN150
      TEMPO 3100/3104 4SM TSRA BKN060CB
     FM310500 30020G30KT P6SM SCT100 BKN200
     FM310900 33010KT P6SM SCT100 BKN200=



000
FTUS43 KUNR 301700
TAFGCC
TAF
KGCC 301720Z 3018/3118 20014KT P6SM SKC
     FM302200 34012KT P6SM SCT080 BKN200
      TEMPO 3100/3102 -TSRA BKN080CB=



000
FTUS43 KUNR 301400 AAA
TAFGCC
TAF AMD
KGCC 301450Z 3015/3112 17017KT P6SM SKC
     FM301800 21011KT P6SM SCT100
     FM302200 34012KT P6SM SCT080 BKN200=



000
FTUS43 KUNR 301400 AAC
TAFRAP
TAF AMD
KRAP 301449Z 3015/3112 15015KT P6SM SKC
     FM302300 15011KT P6SM SCT060 BKN150
      TEMPO 3023/3103 P6SM -TSRA BKN060CB
     FM310500 30010KT P6SM SCT100 BKN200=



000
FTUS43 KUNR 301300 AAB
TAFRAP
TAF AMD
KRAP 301307Z 3013/3112 16015KT P6SM VCFG SKC
      TEMPO 3013/3015 1/4SM FG VV002
     FM302300 15011KT P6SM SCT060 BKN150
      TEMPO 3023/3103 P6SM -TSRA BKN060CB
     FM310500 30010KT P6SM SCT100 BKN200=



000
FTUS43 KUNR 301200 AAA
TAFRAP
TAF AMD
KRAP 301201Z 3012/3112 16015KT P6SM VCFG SKC
      TEMPO 3012/3014 2SM BR SCT002
     FM302300 15011KT P6SM SCT060 BKN150
      TEMPO 3023/3103 P6SM -TSRA BKN060CB
     FM310500 30010KT P6SM SCT100 BKN200=



000
FTUS43 KUNR 301100
TAFGCC
TAF
KGCC 301120Z 3012/3112 17012KT P6SM SKC
     FM301700 21011KT P6SM SCT100
     FM302200 34012KT P6SM SCT080 BKN200=



000
FTUS43 KUNR 301100
TAFRAP
TAF
KRAP 301120Z 3012/3112 16015KT P6SM SKC
     FM302300 15011KT P6SM SCT060 BKN150
      TEMPO 3023/3103 P6SM -TSRA BKN060CB
     FM310500 30010KT P6SM SCT100 BKN200=



000
FTUS43 KUNR 300500
TAFGCC
TAF
KGCC 300520Z 3006/3106 17012KT P6SM SKC
     FM301700 21011KT P6SM SCT100
     FM302000 34012KT P6SM SCT080 BKN200
     FM310300 32008KT P6SM SCT100 BKN200=



000
FTUS43 KUNR 300500
TAFRAP
TAF
KRAP 300520Z 3006/3106 VRB03KT P6SM SCT050
     FM301500 16015KT P6SM SCT250
     FM310000 15011KT P6SM SCT080 BKN150
     FM310400 24010KT P6SM SCT100 BKN200=



    US Dept of Commerce
    National Oceanic and Atmospheric Administration
    National Weather Service
    1325 East West Highway
    Silver Spring, MD 20910
    Page Author: NWS Internet Services Team
Disclaimer
Information Quality
Credits
Glossary
Privacy Policy
Freedom of Information Act (FOIA)
About Us
Career Opportunities